Time;durP1;ratioP1;P1;durP2;ratioP2;P2;SDS_P1;SDS_P2;PMS_P1;PMS_P2;Temp;Humidity;BMP_temperature;BMP_pressure;BME280_temperature;BME280_humidity;BME280_pressure;Samples;Min_cycle;Max_cycle;Signal;HPM_P1;HPM_P2
2021/04/26 00:08:12;;;;;;;0.37;0.37;;;17.40;99.90;;;;;;20555661;23;20247;-77
2021/04/26 00:18:16;;;;;;;0.80;0.43;;;17.30;99.90;;;;;;20536306;28;20199;-76
2021/04/26 00:28:18;;;;;;;0.77;0.63;;;17.30;99.90;;;;;;20518423;28;20196;-77
2021/04/26 00:38:22;;;;;;;0.50;0.50;;;17.20;99.90;;;;;;20535322;28;20204;-77
2021/04/26 00:48:25;;;;;;;0.77;0.47;;;17.10;99.90;;;;;;20532194;28;20207;-78
2021/04/26 00:58:30;;;;;;;1.90;0.67;;;17.20;99.90;;;;;;20531473;28;20216;-82
2021/04/26 01:08:33;;;;;;;1.30;0.70;;;17.00;99.90;;;;;;20533151;28;20220;-77
2021/04/26 01:18:46;;;;;;;0.40;0.40;;;17.00;99.90;;;;;;20532485;28;20724;-77
2021/04/26 01:29:04;;;;;;;1.53;0.50;;;17.00;99.90;;;;;;20534542;28;20196;-77
2021/04/26 01:39:09;;;;;;;0.60;0.50;;;17.00;99.90;;;;;;20533198;28;20536;-76
2021/04/26 01:49:13;;;;;;;2.10;1.23;;;16.90;99.90;;;;;;20528901;28;20627;-76
2021/04/26 01:59:16;;;;;;;0.37;0.30;;;16.80;99.90;;;;;;20535805;28;20231;-76
2021/04/26 02:09:20;;;;;;;0.30;0.30;;;16.70;99.90;;;;;;20620154;28;20191;-77
2021/04/26 02:19:24;;;;;;;0.80;0.57;;;16.50;99.90;;;;;;20626064;28;20412;-78
2021/04/26 02:29:27;;;;;;;0.53;0.53;;;16.40;99.90;;;;;;20624086;28;20207;-79
2021/04/26 02:39:33;;;;;;;0.63;0.63;;;16.30;99.90;;;;;;20626562;28;20589;-75
2021/04/26 02:49:40;;;;;;;0.20;0.13;;;16.30;99.90;;;;;;20623057;28;20194;-76
2021/04/26 02:59:45;;;;;;;0.83;0.63;;;16.00;99.90;;;;;;20618285;28;20311;-80
2021/04/26 03:09:50;;;;;;;0.20;0.20;;;15.90;99.90;;;;;;20543833;28;20196;-80
2021/04/26 03:19:54;;;;;;;0.30;0.30;;;15.90;99.90;;;;;;20540617;28;20689;-80
2021/04/26 03:29:59;;;;;;;1.07;0.40;;;15.90;99.90;;;;;;20542334;28;20979;-78
2021/04/26 03:40:02;;;;;;;0.40;0.40;;;15.80;99.90;;;;;;20541047;28;20246;-80
2021/04/26 03:50:06;;;;;;;13.63;1.33;;;15.70;99.90;;;;;;20539847;28;20718;-81
2021/04/26 04:00:14;;;;;;;0.30;0.17;;;15.70;99.90;;;;;;20545794;28;20230;-81
2021/04/26 04:10:17;;;;;;;0.20;0.20;;;15.50;99.90;;;;;;20619192;28;20203;-77
2021/04/26 04:20:21;;;;;;;0.40;0.30;;;15.60;99.90;;;;;;20602255;28;20746;-81
2021/04/26 04:30:24;;;;;;;3.67;0.83;;;16.20;99.90;;;;;;20618940;28;20673;-76
2021/04/26 04:40:28;;;;;;;0.87;0.87;;;16.40;99.90;;;;;;20598827;28;20901;-77
2021/04/26 04:50:30;;;;;;;0.40;0.40;;;16.40;99.90;;;;;;20619589;28;20199;-81
2021/04/26 05:00:36;;;;;;;0.80;0.53;;;16.60;99.90;;;;;;20601647;28;20240;-80
2021/04/26 05:10:42;;;;;;;0.30;0.30;;;16.80;99.90;;;;;;20536076;28;20228;-78
2021/04/26 05:20:46;;;;;;;0.20;0.20;;;17.00;99.90;;;;;;20536008;28;20235;-80
2021/04/26 05:30:48;;;;;;;0.30;0.20;;;17.10;99.90;;;;;;20537387;28;20268;-79
2021/04/26 05:40:52;;;;;;;0.97;0.50;;;17.40;99.90;;;;;;20532031;28;20584;-82
2021/04/26 05:50:54;;;;;;;0.20;0.20;;;17.20;99.90;;;;;;20535458;28;20294;-81
2021/04/26 06:00:58;;;;;;;0.40;0.40;;;17.20;99.90;;;;;;20563807;28;20260;-84
2021/04/26 06:11:00;;;;;;;0.70;0.43;;;17.20;99.90;;;;;;20695142;28;20205;-77
2021/04/26 06:21:05;;;;;;;0.97;0.60;;;17.30;99.90;;;;;;20692624;28;20340;-80
2021/04/26 06:31:07;;;;;;;0.37;0.37;;;17.60;99.90;;;;;;20699085;28;20203;-77
2021/04/26 06:41:11;;;;;;;0.40;0.40;;;17.90;99.90;;;;;;20687802;28;20306;-82
2021/04/26 06:51:13;;;;;;;1.03;0.67;;;18.30;99.90;;;;;;20692491;28;20198;-74
2021/04/26 07:01:17;;;;;;;0.63;0.40;;;19.00;99.90;;;;;;20703411;28;20347;-77
2021/04/26 07:11:21;;;;;;;2.00;1.10;;;19.40;99.90;;;;;;20690054;28;20644;-76
2021/04/26 07:21:25;;;;;;;0.60;0.53;;;19.80;99.90;;;;;;20702012;28;20765;-79
2021/04/26 07:31:27;;;;;;;0.70;0.70;;;19.90;99.90;;;;;;20682702;28;20242;-79
2021/04/26 07:41:31;;;;;;;0.80;0.33;;;19.00;99.90;;;;;;20701419;28;20591;-79
2021/04/26 07:51:34;;;;;;;0.57;0.50;;;19.10;99.90;;;;;;20700151;28;20226;-75
2021/04/26 08:01:37;;;;;;;1.63;0.63;;;19.20;99.90;;;;;;20698033;28;20552;-78
2021/04/26 08:11:40;;;;;;;18.37;1.17;;;19.50;99.90;;;;;;20701888;28;21036;-77
2021/04/26 08:21:45;;;;;;;0.87;0.70;;;19.60;99.90;;;;;;20695919;28;20237;-83
2021/04/26 08:31:48;;;;;;;0.50;0.50;;;20.50;99.90;;;;;;20684606;28;20280;-80
2021/04/26 08:41:52;;;;;;;0.30;0.20;;;21.00;99.90;;;;;;20699023;28;20309;-76
2021/04/26 08:51:55;;;;;;;0.50;0.30;;;20.90;99.90;;;;;;20696586;28;20207;-76
2021/04/26 09:02:02;;;;;;;1.43;0.93;;;21.20;99.90;;;;;;20693233;28;20270;-79
2021/04/26 09:12:07;;;;;;;1.47;0.77;;;21.70;99.90;;;;;;20694887;28;20203;-83
2021/04/26 09:22:11;;;;;;;0.27;0.27;;;21.50;99.90;;;;;;20674256;28;20218;-74
2021/04/26 09:32:15;;;;;;;0.57;0.27;;;20.70;99.90;;;;;;20694281;28;20311;-82
2021/04/26 09:42:37;;;;;;;2.60;0.73;;;20.00;99.90;;;;;;20690401;28;20222;-78
2021/04/26 09:52:40;;;;;;;1.43;0.50;;;19.90;99.90;;;;;;20692301;28;20190;-80
2021/04/26 10:02:44;;;;;;;4.10;1.23;;;20.10;99.90;;;;;;20692251;28;20253;-80
2021/04/26 10:12:48;;;;;;;0.70;0.70;;;20.00;99.90;;;;;;20691779;28;20292;-83
2021/04/26 10:23:00;;;;;;;0.70;0.60;;;20.10;99.90;;;;;;20694502;28;20257;-81
2021/04/26 10:33:15;;;;;;;0.63;0.50;;;19.90;99.90;;;;;;20708310;28;20202;-79
2021/04/26 10:43:29;;;;;;;1.07;1.03;;;18.80;99.90;;;;;;20669212;28;20222;-72
2021/04/26 10:53:46;;;;;;;0.87;0.40;;;17.10;99.90;;;;;;20685303;28;20656;-73
2021/04/26 11:04:05;;;;;;;1.70;1.60;;;16.80;99.90;;;;;;20699919;28;20245;-79
2021/04/26 11:14:08;;;;;;;0.70;0.60;;;17.90;99.90;;;;;;20698274;28;20201;-72
2021/04/26 11:24:52;;;;;;;1.07;0.97;;;18.30;99.90;;;;;;20699576;28;20237;-75
2021/04/26 11:35:07;;;;;;;0.97;0.97;;;18.80;99.90;;;;;;20701583;28;20377;-74
2021/04/26 11:45:12;;;;;;;3.63;1.07;;;18.20;99.90;;;;;;20680196;28;20251;-77
2021/04/26 11:55:19;;;;;;;0.57;0.50;;;18.20;99.90;;;;;;20698658;28;20199;-76
2021/04/26 12:05:25;;;;;;;1.87;1.33;;;17.80;99.90;;;;;;20698231;28;20621;-76
2021/04/26 12:15:29;;;;;;;3.33;1.27;;;17.40;99.90;;;;;;20677380;28;20308;-75
2021/04/26 12:25:38;;;;;;;0.50;0.50;;;17.30;99.90;;;;;;20694223;28;20632;-77
2021/04/26 12:35:43;;;;;;;3.23;1.27;;;17.80;99.90;;;;;;20690496;28;20226;-80
2021/04/26 12:45:49;;;;;;;0.67;0.67;;;18.10;99.90;;;;;;20695456;28;20222;-76
2021/04/26 12:55:54;;;;;;;1.23;0.97;;;18.10;99.90;;;;;;20696065;28;20258;-78
2021/04/26 13:05:59;;;;;;;0.57;0.57;;;17.70;99.90;;;;;;20696966;28;20230;-79
2021/04/26 13:16:18;;;;;;;1.47;1.03;;;17.80;99.90;;;;;;20695705;28;20435;-82
2021/04/26 13:26:26;;;;;;;0.97;0.83;;;17.90;99.90;;;;;;20698939;28;20289;-77
2021/04/26 13:36:32;;;;;;;0.57;0.57;;;17.60;99.90;;;;;;20690925;28;20194;-81
2021/04/26 13:46:45;;;;;;;0.90;0.60;;;17.60;99.90;;;;;;20691011;28;20226;-77
2021/04/26 13:56:48;;;;;;;0.87;0.30;;;17.50;99.90;;;;;;20692724;28;20221;-71
2021/04/26 14:06:51;;;;;;;1.63;0.87;;;17.40;99.90;;;;;;20672452;28;20377;-79
2021/04/26 14:16:55;;;;;;;2.67;1.07;;;17.00;99.90;;;;;;20692040;28;20462;-79
2021/04/26 14:27:00;;;;;;;1.17;0.87;;;16.70;99.90;;;;;;20705936;28;20263;-80
2021/04/26 14:37:04;;;;;;;2.93;1.13;;;16.80;99.90;;;;;;20706644;28;20233;-70
2021/04/26 14:47:10;;;;;;;2.47;1.07;;;16.60;99.90;;;;;;20705097;28;20725;-78
2021/04/26 14:57:14;;;;;;;2.73;1.63;;;16.30;99.90;;;;;;20704657;28;20231;-77
2021/04/26 15:07:21;;;;;;;1.13;0.83;;;16.40;99.90;;;;;;20685953;28;20262;-77
2021/04/26 15:17:25;;;;;;;1.87;0.77;;;16.60;99.90;;;;;;20701940;28;20203;-73
2021/04/26 15:27:28;;;;;;;1.80;1.17;;;16.60;99.90;;;;;;20682275;28;20308;-79
2021/04/26 15:37:39;;;;;;;0.77;0.53;;;16.50;99.90;;;;;;20681182;28;20647;-71
2021/04/26 15:47:41;;;;;;;0.80;0.80;;;16.60;99.90;;;;;;20682057;28;20226;-78
2021/04/26 15:57:45;;;;;;;1.57;1.00;;;16.40;99.90;;;;;;20702223;28;20242;-78
2021/04/26 16:07:51;;;;;;;1.00;1.00;;;15.10;99.90;;;;;;20640168;28;20934;-75
2021/04/26 16:17:55;;;;;;;0.63;0.53;;;14.50;99.90;;;;;;20663520;28;20526;-75
2021/04/26 16:27:59;;;;;;;0.47;0.43;;;14.60;99.90;;;;;;20697230;28;21045;-79
2021/04/26 16:38:03;;;;;;;1.73;1.63;;;14.20;99.90;;;;;;20696533;28;20207;-82
2021/04/26 16:48:08;;;;;;;0.40;0.40;;;14.10;99.90;;;;;;20697771;28;20297;-76
2021/04/26 16:58:12;;;;;;;0.83;0.40;;;13.90;99.90;;;;;;20692393;28;20210;-77
2021/04/26 17:08:15;;;;;;;0.20;0.20;;;14.10;99.90;;;;;;20693889;28;20281;-75
2021/04/26 17:18:18;;;;;;;1.13;1.13;;;14.00;99.90;;;;;;20693195;28;20205;-73
2021/04/26 17:28:22;;;;;;;1.03;0.70;;;13.90;99.90;;;;;;20677017;28;20892;-75
2021/04/26 17:38:28;;;;;;;2.00;0.50;;;13.90;99.90;;;;;;20691562;28;20187;-76
2021/04/26 17:48:31;;;;;;;0.30;0.27;;;13.80;99.90;;;;;;20693693;28;20476;-77
2021/04/26 17:58:37;;;;;;;0.93;0.93;;;13.90;99.90;;;;;;20688750;28;20203;-79
2021/04/26 18:09:11;;;;;;;1.37;0.83;;;13.80;99.90;;;;;;20656279;28;20425;-77
2021/04/26 18:19:25;;;;;;;1.37;0.73;;;13.70;99.90;;;;;;20609174;28;20196;-77
2021/04/26 18:29:27;;;;;;;1.57;1.40;;;13.90;99.90;;;;;;20608591;28;20223;-75
2021/04/26 18:39:31;;;;;;;0.87;0.80;;;13.90;99.90;;;;;;20678911;28;20289;-75
2021/04/26 18:49:34;;;;;;;0.73;0.40;;;13.90;99.90;;;;;;20683459;28;20211;-78
2021/04/26 18:59:38;;;;;;;1.23;1.13;;;13.90;99.90;;;;;;20701868;28;20544;-79
2021/04/26 19:09:41;;;;;;;1.43;1.10;;;14.30;99.90;;;;;;20699001;28;20210;-79
2021/04/26 19:19:44;;;;;;;1.07;1.00;;;14.40;99.90;;;;;;20703723;28;20463;-80
2021/04/26 19:29:55;;;;;;;4.47;0.80;;;14.50;99.90;;;;;;20668072;23;20586;-78
2021/04/26 19:40:34;;;;;;;1.90;1.27;;;14.50;99.90;;;;;;20688734;28;20205;-76
2021/04/26 19:51:24;;;;;;;0.60;0.30;;;14.60;99.90;;;;;;20685145;28;20206;-78
2021/04/26 20:01:28;;;;;;;0.70;0.70;;;14.70;99.90;;;;;;20661027;28;20691;-79
2021/04/26 20:11:32;;;;;;;1.70;0.83;;;14.80;99.90;;;;;;20603391;28;20218;-78
2021/04/26 20:21:36;;;;;;;0.50;0.50;;;14.60;99.90;;;;;;20618466;28;20241;-79
2021/04/26 20:31:38;;;;;;;0.37;0.37;;;14.50;99.90;;;;;;20616431;28;20223;-78
2021/04/26 20:41:42;;;;;;;0.50;0.50;;;14.30;99.90;;;;;;20692955;28;20233;-78
2021/04/26 20:51:44;;;;;;;0.97;0.33;;;14.30;99.90;;;;;;20691875;28;20644;-77
2021/04/26 21:01:49;;;;;;;0.93;0.50;;;14.40;99.90;;;;;;20667215;28;20219;-78
2021/04/26 21:11:52;;;;;;;1.60;1.10;;;14.50;99.90;;;;;;20609633;28;20196;-78
2021/04/26 21:21:55;;;;;;;2.30;2.10;;;14.50;99.90;;;;;;20608476;28;20227;-78
2021/04/26 21:31:59;;;;;;;1.90;0.97;;;14.30;99.90;;;;;;20586205;28;831660;-79
2021/04/26 21:42:02;;;;;;;1.80;1.13;;;14.20;99.90;;;;;;20690810;28;20371;-77
2021/04/26 21:52:05;;;;;;;0.83;0.70;;;14.00;99.90;;;;;;20693744;28;20616;-80
2021/04/26 22:02:09;;;;;;;0.47;0.43;;;14.00;99.90;;;;;;20664944;28;20219;-76
2021/04/26 22:12:12;;;;;;;0.50;0.43;;;13.90;99.90;;;;;;20611260;28;20200;-76
2021/04/26 22:22:18;;;;;;;0.40;0.30;;;14.00;99.90;;;;;;20613469;28;20681;-74
2021/04/26 22:32:21;;;;;;;0.83;0.67;;;14.30;99.90;;;;;;20632759;28;20238;-72
2021/04/26 22:42:24;;;;;;;2.00;0.80;;;14.20;99.90;;;;;;20703995;28;20222;-75
2021/04/26 22:52:27;;;;;;;0.37;0.30;;;14.20;99.90;;;;;;20688618;28;20661;-78
2021/04/26 23:02:31;;;;;;;1.10;0.60;;;14.20;99.90;;;;;;20674680;28;20215;-75
2021/04/26 23:12:34;;;;;;;1.37;1.10;;;14.30;99.90;;;;;;20621970;28;20199;-77
2021/04/26 23:22:38;;;;;;;0.87;0.87;;;14.40;99.90;;;;;;20621503;28;20230;-76
2021/04/26 23:32:42;;;;;;;0.30;0.20;;;14.40;99.90;;;;;;20630258;28;20660;-75
2021/04/26 23:42:46;;;;;;;0.70;0.70;;;14.30;99.90;;;;;;20692791;28;20235;-75
2021/04/26 23:52:49;;;;;;;0.40;0.37;;;14.30;99.90;;;;;;20619800;28;20665;-76
